sensor_id;sensor_type;location;lat;lon;timestamp;pressure;altitude;pressure_sealevel;temperature;humidity
46954;BME280;32707;43.886;12.874;2022-09-12T00:01:50;101430.31;;;17.44;68.12
46954;BME280;32707;43.886;12.874;2022-09-12T00:04:16;101431.34;;;17.40;68.47
46954;BME280;32707;43.886;12.874;2022-09-12T00:06:41;101424.41;;;17.37;68.37
46954;BME280;32707;43.886;12.874;2022-09-12T00:09:10;101430.16;;;17.28;68.21
46954;BME280;32707;43.886;12.874;2022-09-12T00:11:42;101429.47;;;17.19;68.51
46954;BME280;32707;43.886;12.874;2022-09-12T00:14:10;101433.13;;;17.20;68.69
46954;BME280;32707;43.886;12.874;2022-09-12T00:16:36;101444.91;;;17.22;68.75
46954;BME280;32707;43.886;12.874;2022-09-12T00:19:04;101437.09;;;17.19;68.66
46954;BME280;32707;43.886;12.874;2022-09-12T00:21:32;101429.34;;;17.16;69.02
46954;BME280;32707;43.886;12.874;2022-09-12T00:23:58;101428.28;;;17.20;68.61
46954;BME280;32707;43.886;12.874;2022-09-12T00:26:23;101434.75;;;17.21;68.72
46954;BME280;32707;43.886;12.874;2022-09-12T00:28:49;101433.13;;;17.20;68.65
46954;BME280;32707;43.886;12.874;2022-09-12T00:31:21;101428.63;;;17.19;68.99
46954;BME280;32707;43.886;12.874;2022-09-12T00:33:48;101431.31;;;17.15;68.88
46954;BME280;32707;43.886;12.874;2022-09-12T00:36:22;101429.56;;;17.10;69.18
46954;BME280;32707;43.886;12.874;2022-09-12T00:38:49;101431.56;;;17.10;69.18
46954;BME280;32707;43.886;12.874;2022-09-12T00:41:26;101439.09;;;17.06;69.07
46954;BME280;32707;43.886;12.874;2022-09-12T00:43:58;101430.97;;;17.04;69.25
46954;BME280;32707;43.886;12.874;2022-09-12T00:46:46;101430.97;;;17.04;69.42
46954;BME280;32707;43.886;12.874;2022-09-12T00:49:31;101434.16;;;17.03;69.50
46954;BME280;32707;43.886;12.874;2022-09-12T00:52:00;101428.38;;;16.99;69.11
46954;BME280;32707;43.886;12.874;2022-09-12T00:54:32;101422.94;;;16.94;69.58
46954;BME280;32707;43.886;12.874;2022-09-12T00:57:01;101422.47;;;16.92;69.76
46954;BME280;32707;43.886;12.874;2022-09-12T00:59:32;101428.91;;;16.93;69.85
46954;BME280;32707;43.886;12.874;2022-09-12T01:02:01;101424.47;;;16.92;69.38
46954;BME280;32707;43.886;12.874;2022-09-12T01:04:28;101424.81;;;16.90;69.60
46954;BME280;32707;43.886;12.874;2022-09-12T01:06:56;101416.66;;;16.88;69.70
46954;BME280;32707;43.886;12.874;2022-09-12T01:09:23;101421.84;;;16.86;69.97
46954;BME280;32707;43.886;12.874;2022-09-12T01:11:50;101413.38;;;16.86;69.79
46954;BME280;32707;43.886;12.874;2022-09-12T01:14:18;101414.66;;;16.89;69.92
46954;BME280;32707;43.886;12.874;2022-09-12T01:16:45;101406.19;;;16.89;69.71
46954;BME280;32707;43.886;12.874;2022-09-12T01:25:07;101407.09;;;16.81;70.29
46954;BME280;32707;43.886;12.874;2022-09-12T01:38:48;101402.31;;;16.60;70.06
46954;BME280;32707;43.886;12.874;2022-09-12T01:44:02;101402.06;;;16.53;70.83
46954;BME280;32707;43.886;12.874;2022-09-12T01:46:47;101388.97;;;16.48;71.01
46954;BME280;32707;43.886;12.874;2022-09-12T01:49:32;101388.97;;;16.48;70.94
46954;BME280;32707;43.886;12.874;2022-09-12T01:52:21;101389.47;;;16.50;70.31
46954;BME280;32707;43.886;12.874;2022-09-12T01:54:52;101398.06;;;16.54;70.70
46954;BME280;32707;43.886;12.874;2022-09-12T01:57:31;101392.88;;;16.56;70.34
46954;BME280;32707;43.886;12.874;2022-09-12T02:00:04;101391.22;;;16.55;70.20
46954;BME280;32707;43.886;12.874;2022-09-12T02:02:37;101390.28;;;16.51;70.55
46954;BME280;32707;43.886;12.874;2022-09-12T02:05:11;101394.69;;;16.40;70.59
46954;BME280;32707;43.886;12.874;2022-09-12T02:07:45;101398.78;;;16.30;70.71
46954;BME280;32707;43.886;12.874;2022-09-12T02:15:25;101395.16;;;16.29;70.73
46954;BME280;32707;43.886;12.874;2022-09-12T02:17:54;101383.38;;;16.27;70.84
46954;BME280;32707;43.886;12.874;2022-09-12T02:20:33;101388.16;;;16.27;70.46
46954;BME280;32707;43.886;12.874;2022-09-12T02:23:00;101393.34;;;16.25;70.88
46954;BME280;32707;43.886;12.874;2022-09-12T02:25:28;101391.22;;;16.22;70.87
46954;BME280;32707;43.886;12.874;2022-09-12T02:28:08;101392.38;;;16.21;71.38
46954;BME280;32707;43.886;12.874;2022-09-12T02:30:42;101385.91;;;16.20;71.41
46954;BME280;32707;43.886;12.874;2022-09-12T02:33:38;101389.44;;;16.17;71.02
46954;BME280;32707;43.886;12.874;2022-09-12T02:36:27;101380.13;;;16.17;71.44
46954;BME280;32707;43.886;12.874;2022-09-12T02:38:57;101378.94;;;16.18;71.47
46954;BME280;32707;43.886;12.874;2022-09-12T02:41:23;101378.13;;;16.17;71.38
46954;BME280;32707;43.886;12.874;2022-09-12T02:43:50;101380.63;;;16.19;71.26
46954;BME280;32707;43.886;12.874;2022-09-12T02:46:27;101377.78;;;16.19;71.29
46954;BME280;32707;43.886;12.874;2022-09-12T02:48:56;101379.44;;;16.20;71.20
46954;BME280;32707;43.886;12.874;2022-09-12T02:51:22;101376.59;;;16.20;71.26
46954;BME280;32707;43.886;12.874;2022-09-12T02:53:48;101376.50;;;16.16;71.79
46954;BME280;32707;43.886;12.874;2022-09-12T02:56:21;101379.03;;;16.09;71.75
46954;BME280;32707;43.886;12.874;2022-09-12T02:58:48;101382.41;;;16.02;71.60
46954;BME280;32707;43.886;12.874;2022-09-12T03:07:10;101379.59;;;15.81;72.49
46954;BME280;32707;43.886;12.874;2022-09-12T03:09:48;101378.16;;;15.75;72.28
46954;BME280;32707;43.886;12.874;2022-09-12T03:15:11;101372.00;;;15.73;72.50
46954;BME280;32707;43.886;12.874;2022-09-12T03:20:44;101371.59;;;15.83;72.08
46954;BME280;32707;43.886;12.874;2022-09-12T03:28:56;101368.88;;;15.96;71.68
46954;BME280;32707;43.886;12.874;2022-09-12T03:31:23;101370.97;;;15.99;71.73
46954;BME280;32707;43.886;12.874;2022-09-12T03:33:49;101380.06;;;16.04;71.60
46954;BME280;32707;43.886;12.874;2022-09-12T03:36:23;101370.91;;;16.07;72.00
46954;BME280;32707;43.886;12.874;2022-09-12T03:38:49;101378.19;;;16.08;71.22
46954;BME280;32707;43.886;12.874;2022-09-12T03:41:15;101385.03;;;16.07;71.69
46954;BME280;32707;43.886;12.874;2022-09-12T03:43:40;101380.91;;;16.05;72.00
46954;BME280;32707;43.886;12.874;2022-09-12T03:46:06;101379.09;;;16.00;72.14
46954;BME280;32707;43.886;12.874;2022-09-12T03:48:32;101383.13;;;15.99;71.51
46954;BME280;32707;43.886;12.874;2022-09-12T03:51:02;101383.31;;;15.94;72.24
46954;BME280;32707;43.886;12.874;2022-09-12T03:53:28;101383.50;;;15.89;72.18
46954;BME280;32707;43.886;12.874;2022-09-12T03:55:55;101389.50;;;15.87;72.42
46954;BME280;32707;43.886;12.874;2022-09-12T03:58:21;101384.19;;;15.86;72.19
46954;BME280;32707;43.886;12.874;2022-09-12T04:00:46;101395.00;;;15.84;72.29
46954;BME280;32707;43.886;12.874;2022-09-12T04:03:12;101391.22;;;15.80;73.01
46954;BME280;32707;43.886;12.874;2022-09-12T04:05:37;101387.91;;;15.78;72.69
46954;BME280;32707;43.886;12.874;2022-09-12T04:08:03;101386.28;;;15.77;72.76
46954;BME280;32707;43.886;12.874;2022-09-12T04:10:28;101382.59;;;15.76;72.47
46954;BME280;32707;43.886;12.874;2022-09-12T04:12:54;101386.28;;;15.77;72.93
46954;BME280;32707;43.886;12.874;2022-09-12T04:15:19;101387.09;;;15.77;72.56
46954;BME280;32707;43.886;12.874;2022-09-12T04:17:45;101387.56;;;15.79;72.85
46954;BME280;32707;43.886;12.874;2022-09-12T04:20:10;101390.53;;;15.83;72.42
46954;BME280;32707;43.886;12.874;2022-09-12T04:22:36;101392.66;;;15.86;72.64
46954;BME280;32707;43.886;12.874;2022-09-12T04:25:01;101392.31;;;15.87;72.42
46954;BME280;32707;43.886;12.874;2022-09-12T04:27:27;101384.69;;;15.88;72.96
46954;BME280;32707;43.886;12.874;2022-09-12T04:29:52;101393.66;;;15.90;72.57
46954;BME280;32707;43.886;12.874;2022-09-12T04:32:19;101394.59;;;15.94;72.98
46954;BME280;32707;43.886;12.874;2022-09-12T04:34:45;101385.44;;;15.97;72.57
46954;BME280;32707;43.886;12.874;2022-09-12T04:37:11;101388.38;;;16.01;72.71
46954;BME280;32707;43.886;12.874;2022-09-12T04:39:36;101386.56;;;16.05;72.54
46954;BME280;32707;43.886;12.874;2022-09-12T04:42:02;101391.84;;;16.06;72.09
46954;BME280;32707;43.886;12.874;2022-09-12T04:44:28;101387.03;;;16.07;72.09
46954;BME280;32707;43.886;12.874;2022-09-12T04:46:55;101389.16;;;16.10;72.29
46954;BME280;32707;43.886;12.874;2022-09-12T04:49:22;101386.00;;;16.11;72.73
46954;BME280;32707;43.886;12.874;2022-09-12T04:51:47;101395.75;;;16.14;71.91
46954;BME280;32707;43.886;12.874;2022-09-12T04:54:18;101393.78;;;16.15;72.63
46954;BME280;32707;43.886;12.874;2022-09-12T04:56:46;101394.72;;;16.19;71.52
46954;BME280;32707;43.886;12.874;2022-09-12T04:59:14;101393.91;;;16.18;72.04
46954;BME280;32707;43.886;12.874;2022-09-12T05:01:40;101400.84;;;16.21;72.27
46954;BME280;32707;43.886;12.874;2022-09-12T05:04:06;101397.22;;;16.20;72.14
46954;BME280;32707;43.886;12.874;2022-09-12T05:06:34;101410.84;;;16.18;72.04
46954;BME280;32707;43.886;12.874;2022-09-12T05:09:01;101408.03;;;16.18;71.80
46954;BME280;32707;43.886;12.874;2022-09-12T05:11:29;101411.66;;;16.19;72.33
46954;BME280;32707;43.886;12.874;2022-09-12T05:13:55;101419.09;;;16.23;72.03
46954;BME280;32707;43.886;12.874;2022-09-12T05:16:24;101410.75;;;16.27;72.04
46954;BME280;32707;43.886;12.874;2022-09-12T05:18:50;101421.50;;;16.33;71.75
46954;BME280;32707;43.886;12.874;2022-09-12T05:21:18;101415.28;;;16.40;71.87
46954;BME280;32707;43.886;12.874;2022-09-12T05:23:44;101420.38;;;16.47;71.76
46954;BME280;32707;43.886;12.874;2022-09-12T05:26:14;101420.78;;;16.58;71.13
46954;BME280;32707;43.886;12.874;2022-09-12T05:28:40;101422.34;;;16.67;71.19
46954;BME280;32707;43.886;12.874;2022-09-12T05:31:15;101422.75;;;16.78;70.83
46954;BME280;32707;43.886;12.874;2022-09-12T05:33:43;101427.16;;;16.88;70.24
46954;BME280;32707;43.886;12.874;2022-09-12T05:36:14;101429.19;;;17.00;70.05
46954;BME280;32707;43.886;12.874;2022-09-12T05:38:40;101429.91;;;17.09;69.86
46954;BME280;32707;43.886;12.874;2022-09-12T05:41:11;101429.09;;;17.21;69.59
46954;BME280;32707;43.886;12.874;2022-09-12T05:43:38;101442.19;;;17.25;69.42
46954;BME280;32707;43.886;12.874;2022-09-12T05:46:09;101439.97;;;17.31;69.43
46954;BME280;32707;43.886;12.874;2022-09-12T05:48:36;101435.16;;;17.44;69.12
46954;BME280;32707;43.886;12.874;2022-09-12T05:51:04;101433.84;;;17.54;69.08
46954;BME280;32707;43.886;12.874;2022-09-12T05:53:31;101439.94;;;17.68;68.70
46954;BME280;32707;43.886;12.874;2022-09-12T05:56:11;101446.44;;;17.81;68.25
46954;BME280;32707;43.886;12.874;2022-09-12T05:58:41;101448.84;;;17.91;68.24
46954;BME280;32707;43.886;12.874;2022-09-12T06:01:15;101455.66;;;18.02;67.92
46954;BME280;32707;43.886;12.874;2022-09-12T06:03:46;101459.28;;;18.15;67.45
46954;BME280;32707;43.886;12.874;2022-09-12T06:06:13;101453.13;;;18.25;67.41
46954;BME280;32707;43.886;12.874;2022-09-12T06:08:41;101452.47;;;18.44;66.92
46954;BME280;32707;43.886;12.874;2022-09-12T06:11:09;101458.31;;;18.64;66.55
46954;BME280;32707;43.886;12.874;2022-09-12T06:13:37;101459.81;;;18.74;66.10
46954;BME280;32707;43.886;12.874;2022-09-12T06:16:08;101460.72;;;18.78;66.12
46954;BME280;32707;43.886;12.874;2022-09-12T06:18:35;101446.69;;;18.81;65.77
46954;BME280;32707;43.886;12.874;2022-09-12T06:21:03;101455.50;;;18.92;65.94
46954;BME280;32707;43.886;12.874;2022-09-12T06:23:29;101441.31;;;19.08;65.27
46954;BME280;32707;43.886;12.874;2022-09-12T06:25:54;101446.56;;;19.22;65.16
46954;BME280;32707;43.886;12.874;2022-09-12T06:28:19;101445.28;;;19.35;64.86
46954;BME280;32707;43.886;12.874;2022-09-12T06:30:45;101448.84;;;19.48;64.68
46954;BME280;32707;43.886;12.874;2022-09-12T06:33:11;101454.25;;;19.69;63.89
46954;BME280;32707;43.886;12.874;2022-09-12T06:35:37;101442.16;;;19.88;63.42
46954;BME280;32707;43.886;12.874;2022-09-12T06:38:03;101445.25;;;19.99;63.45
46954;BME280;32707;43.886;12.874;2022-09-12T06:40:30;101438.00;;;20.21;62.75
46954;BME280;32707;43.886;12.874;2022-09-12T06:42:55;101441.47;;;20.50;62.22
46954;BME280;32707;43.886;12.874;2022-09-12T06:45:21;101441.13;;;20.71;61.61
46954;BME280;32707;43.886;12.874;2022-09-12T06:47:47;101441.91;;;20.91;60.95
46954;BME280;32707;43.886;12.874;2022-09-12T06:50:12;101432.25;;;21.19;60.76
46954;BME280;32707;43.886;12.874;2022-09-12T06:52:38;101437.53;;;21.63;60.18
46954;BME280;32707;43.886;12.874;2022-09-12T06:55:04;101433.50;;;22.21;59.23
46954;BME280;32707;43.886;12.874;2022-09-12T06:57:30;101436.97;;;22.67;58.04
46954;BME280;32707;43.886;12.874;2022-09-12T06:59:56;101442.88;;;23.23;57.37
46954;BME280;32707;43.886;12.874;2022-09-12T07:02:23;101444.25;;;23.88;56.40
46954;BME280;32707;43.886;12.874;2022-09-12T07:04:50;101429.81;;;24.33;55.30
46954;BME280;32707;43.886;12.874;2022-09-12T07:07:16;101431.66;;;24.84;54.64
46954;BME280;32707;43.886;12.874;2022-09-12T07:09:41;101434.63;;;25.56;53.53
46954;BME280;32707;43.886;12.874;2022-09-12T07:12:07;101429.25;;;26.12;52.74
46954;BME280;32707;43.886;12.874;2022-09-12T07:14:33;101432.72;;;26.77;51.31
46954;BME280;32707;43.886;12.874;2022-09-12T07:16:58;101440.19;;;27.30;50.39
46954;BME280;32707;43.886;12.874;2022-09-12T07:19:24;101430.94;;;27.53;49.99
46954;BME280;32707;43.886;12.874;2022-09-12T07:21:49;101443.38;;;27.92;49.32
46954;BME280;32707;43.886;12.874;2022-09-12T07:24:15;101444.53;;;28.36;48.77
46954;BME280;32707;43.886;12.874;2022-09-12T07:26:40;101432.03;;;28.81;47.97
46954;BME280;32707;43.886;12.874;2022-09-12T07:29:08;101429.28;;;29.01;47.44
46954;BME280;32707;43.886;12.874;2022-09-12T07:31:37;101438.56;;;29.39;46.79
46954;BME280;32707;43.886;12.874;2022-09-12T07:34:05;101426.41;;;29.79;45.73
46954;BME280;32707;43.886;12.874;2022-09-12T07:36:31;101434.81;;;30.13;45.51
46954;BME280;32707;43.886;12.874;2022-09-12T07:38:57;101423.63;;;30.75;44.27
46954;BME280;32707;43.886;12.874;2022-09-12T07:41:28;101425.72;;;31.11;43.63
46954;BME280;32707;43.886;12.874;2022-09-12T07:43:55;101423.03;;;31.37;43.21
46954;BME280;32707;43.886;12.874;2022-09-12T07:46:22;101426.09;;;31.79;42.17
46954;BME280;32707;43.886;12.874;2022-09-12T07:48:50;101426.34;;;31.85;41.68
46954;BME280;32707;43.886;12.874;2022-09-12T07:51:16;101431.78;;;31.83;41.71
46954;BME280;32707;43.886;12.874;2022-09-12T07:53:42;101429.56;;;32.20;41.08
46954;BME280;32707;43.886;12.874;2022-09-12T07:56:09;101429.25;;;32.30;40.42
46954;BME280;32707;43.886;12.874;2022-09-12T07:58:36;101434.25;;;32.72;39.66
46954;BME280;32707;43.886;12.874;2022-09-12T08:01:06;101425.81;;;33.16;38.95
46954;BME280;32707;43.886;12.874;2022-09-12T08:03:33;101432.66;;;33.96;37.32
46954;BME280;32707;43.886;12.874;2022-09-12T08:06:06;101421.34;;;34.77;36.29
46954;BME280;32707;43.886;12.874;2022-09-12T08:08:32;101425.84;;;35.40;35.20
46954;BME280;32707;43.886;12.874;2022-09-12T08:10:59;101418.16;;;36.02;34.59
46954;BME280;32707;43.886;12.874;2022-09-12T08:13:28;101417.97;;;36.61;33.49
46954;BME280;32707;43.886;12.874;2022-09-12T08:16:03;101416.34;;;37.12;32.57
46954;BME280;32707;43.886;12.874;2022-09-12T08:18:29;101414.47;;;37.57;32.08
46954;BME280;32707;43.886;12.874;2022-09-12T08:20:59;101417.09;;;38.03;31.55
46954;BME280;32707;43.886;12.874;2022-09-12T08:23:26;101424.81;;;38.30;31.20
46954;BME280;32707;43.886;12.874;2022-09-12T08:26:00;101410.72;;;38.59;30.35
46954;BME280;32707;43.886;12.874;2022-09-12T08:28:30;101408.09;;;38.76;30.31
46954;BME280;32707;43.886;12.874;2022-09-12T08:31:03;101411.81;;;38.91;30.01
46954;BME280;32707;43.886;12.874;2022-09-12T08:33:29;101409.91;;;39.03;29.82
46954;BME280;32707;43.886;12.874;2022-09-12T08:36:10;101403.13;;;39.12;29.40
46954;BME280;32707;43.886;12.874;2022-09-12T08:38:38;101403.41;;;39.14;30.02
46954;BME280;32707;43.886;12.874;2022-09-12T08:41:34;101407.63;;;39.27;29.08
46954;BME280;32707;43.886;12.874;2022-09-12T08:49:32;101406.41;;;39.55;28.31
46954;BME280;32707;43.886;12.874;2022-09-12T08:52:04;101413.25;;;39.46;28.09
46954;BME280;32707;43.886;12.874;2022-09-12T08:54:31;101412.97;;;39.29;27.88
46954;BME280;32707;43.886;12.874;2022-09-12T08:57:02;101407.75;;;39.54;27.46
46954;BME280;32707;43.886;12.874;2022-09-12T08:59:40;101395.69;;;39.67;26.84
46954;BME280;32707;43.886;12.874;2022-09-12T09:03:06;101394.84;;;39.66;26.63
46954;BME280;32707;43.886;12.874;2022-09-12T09:18:46;101393.47;;;40.02;25.00
46954;BME280;32707;43.886;12.874;2022-09-12T09:21:21;101397.84;;;40.13;24.75
46954;BME280;32707;43.886;12.874;2022-09-12T09:23:59;101385.09;;;40.16;24.75
46954;BME280;32707;43.886;12.874;2022-09-12T09:26:40;101380.16;;;40.54;24.03
46954;BME280;32707;43.886;12.874;2022-09-12T09:29:19;101381.81;;;40.60;23.65
46954;BME280;32707;43.886;12.874;2022-09-12T09:31:52;101371.28;;;40.22;24.03
46954;BME280;32707;43.886;12.874;2022-09-12T09:34:21;101376.97;;;40.05;24.03
46954;BME280;32707;43.886;12.874;2022-09-12T09:37:02;101377.38;;;40.18;23.63
46954;BME280;32707;43.886;12.874;2022-09-12T09:44:55;101364.06;;;40.17;22.67
46954;BME280;32707;43.886;12.874;2022-09-12T09:47:22;101376.47;;;40.59;22.60
46954;BME280;32707;43.886;12.874;2022-09-12T09:49:47;101374.84;;;40.58;22.17
46954;BME280;32707;43.886;12.874;2022-09-12T09:52:15;101370.69;;;40.38;22.01
46954;BME280;32707;43.886;12.874;2022-09-12T09:55:00;101361.00;;;40.58;21.83
46954;BME280;32707;43.886;12.874;2022-09-12T09:57:45;101355.88;;;40.79;21.54
46954;BME280;32707;43.886;12.874;2022-09-12T10:00:33;101356.22;;;40.93;21.26
46954;BME280;32707;43.886;12.874;2022-09-12T10:03:29;101354.13;;;41.42;20.50
46954;BME280;32707;43.886;12.874;2022-09-12T10:06:06;101358.53;;;41.64;20.57
46954;BME280;32707;43.886;12.874;2022-09-12T10:08:34;101350.63;;;41.98;20.09
46954;BME280;32707;43.886;12.874;2022-09-12T10:11:15;101339.19;;;42.28;20.19
46954;BME280;32707;43.886;12.874;2022-09-12T10:13:56;101343.72;;;42.07;21.00
46954;BME280;32707;43.886;12.874;2022-09-12T10:16:33;101348.66;;;41.67;21.45
46954;BME280;32707;43.886;12.874;2022-09-12T10:19:20;101343.94;;;41.32;22.06
46954;BME280;32707;43.886;12.874;2022-09-12T10:21:54;101338.91;;;41.38;21.78
46954;BME280;32707;43.886;12.874;2022-09-12T10:24:36;101341.63;;;41.53;21.64
46954;BME280;32707;43.886;12.874;2022-09-12T10:27:12;101346.69;;;41.47;22.23
46954;BME280;32707;43.886;12.874;2022-09-12T10:29:45;101333.69;;;41.65;21.67
46954;BME280;32707;43.886;12.874;2022-09-12T10:32:23;101337.00;;;41.35;22.52
46954;BME280;32707;43.886;12.874;2022-09-12T10:34:53;101328.31;;;41.09;22.42
46954;BME280;32707;43.886;12.874;2022-09-12T10:37:28;101324.81;;;41.05;22.81
46954;BME280;32707;43.886;12.874;2022-09-12T10:39:56;101328.81;;;41.02;22.81
46954;BME280;32707;43.886;12.874;2022-09-12T10:42:48;101317.06;;;40.96;22.83
46954;BME280;32707;43.886;12.874;2022-09-12T10:45:32;101321.06;;;40.98;22.96
46954;BME280;32707;43.886;12.874;2022-09-12T10:48:02;101323.16;;;40.92;22.99
46954;BME280;32707;43.886;12.874;2022-09-12T10:53:21;101321.59;;;41.03;22.93
46954;BME280;32707;43.886;12.874;2022-09-12T11:06:36;101312.75;;;41.40;22.93
46954;BME280;32707;43.886;12.874;2022-09-12T11:09:13;101314.91;;;41.40;22.66
46954;BME280;32707;43.886;12.874;2022-09-12T11:12:05;101316.13;;;41.22;22.87
46954;BME280;32707;43.886;12.874;2022-09-12T11:17:42;101317.34;;;41.04;23.31
46954;BME280;32707;43.886;12.874;2022-09-12T11:28:55;101323.28;;;41.15;23.13
46954;BME280;32707;43.886;12.874;2022-09-12T11:34:13;101299.97;;;41.43;23.19
46954;BME280;32707;43.886;12.874;2022-09-12T11:37:01;101317.41;;;41.64;22.79
46954;BME280;32707;43.886;12.874;2022-09-12T11:39:39;101314.94;;;41.51;23.03
46954;BME280;32707;43.886;12.874;2022-09-12T11:42:08;101313.41;;;41.18;23.29
46954;BME280;32707;43.886;12.874;2022-09-12T11:44:40;101300.03;;;41.06;23.83
46954;BME280;32707;43.886;12.874;2022-09-12T11:47:10;101297.03;;;40.94;23.65
46954;BME280;32707;43.886;12.874;2022-09-12T11:49:49;101298.88;;;40.92;23.69
46954;BME280;32707;43.886;12.874;2022-09-12T11:52:23;101297.94;;;40.74;23.78
46954;BME280;32707;43.886;12.874;2022-09-12T11:55:01;101293.41;;;40.73;23.93
46954;BME280;32707;43.886;12.874;2022-09-12T12:03:16;101292.13;;;40.80;23.94
46954;BME280;32707;43.886;12.874;2022-09-12T12:08:16;101278.94;;;40.64;23.98
46954;BME280;32707;43.886;12.874;2022-09-12T12:10:49;101282.41;;;40.63;23.96
46954;BME280;32707;43.886;12.874;2022-09-12T12:18:55;101271.81;;;39.87;24.17
46954;BME280;32707;43.886;12.874;2022-09-12T12:34:32;101256.00;;;40.63;22.84
46954;BME280;32707;43.886;12.874;2022-09-12T12:47:46;101248.63;;;40.09;23.01
46954;BME280;32707;43.886;12.874;2022-09-12T12:50:21;101245.69;;;40.09;23.27
46954;BME280;32707;43.886;12.874;2022-09-12T12:53:04;101247.03;;;40.08;23.54
46954;BME280;32707;43.886;12.874;2022-09-12T12:58:07;101243.81;;;39.80;23.71
46954;BME280;32707;43.886;12.874;2022-09-12T13:01:11;101239.59;;;39.60;24.06
46954;BME280;32707;43.886;12.874;2022-09-12T13:03:59;101237.03;;;39.68;24.39
46954;BME280;32707;43.886;12.874;2022-09-12T13:18:26;101243.25;;;38.73;25.08
46954;BME280;32707;43.886;12.874;2022-09-12T13:21:06;101248.97;;;38.32;25.49
46954;BME280;32707;43.886;12.874;2022-09-12T13:23:38;101239.31;;;37.96;26.00
46954;BME280;32707;43.886;12.874;2022-09-12T13:26:23;101237.47;;;37.15;27.13
46954;BME280;32707;43.886;12.874;2022-09-12T13:29:08;101235.69;;;36.84;27.49
46954;BME280;32707;43.886;12.874;2022-09-12T13:31:34;101234.72;;;36.54;27.90
46954;BME280;32707;43.886;12.874;2022-09-12T13:34:00;101233.56;;;36.18;28.17
46954;BME280;32707;43.886;12.874;2022-09-12T13:40:00;101221.44;;;34.31;29.92
46954;BME280;32707;43.886;12.874;2022-09-12T13:42:40;101222.59;;;33.36;31.30
46954;BME280;32707;43.886;12.874;2022-09-12T13:47:42;101220.16;;;31.55;33.33
46954;BME280;32707;43.886;12.874;2022-09-12T13:50:21;101223.53;;;31.08;34.12
46954;BME280;32707;43.886;12.874;2022-09-12T13:52:52;101211.25;;;30.71;34.80
46954;BME280;32707;43.886;12.874;2022-09-12T13:55:33;101210.09;;;30.35;35.38
46954;BME280;32707;43.886;12.874;2022-09-12T13:58:14;101202.44;;;30.09;35.80
46954;BME280;32707;43.886;12.874;2022-09-12T14:00:40;101212.38;;;29.88;35.73
46954;BME280;32707;43.886;12.874;2022-09-12T14:03:42;101203.59;;;29.75;36.24
46954;BME280;32707;43.886;12.874;2022-09-12T14:06:40;101214.38;;;29.71;36.43
46954;BME280;32707;43.886;12.874;2022-09-12T14:09:13;101202.84;;;29.71;36.67
46954;BME280;32707;43.886;12.874;2022-09-12T14:11:39;101209.41;;;29.71;36.58
46954;BME280;32707;43.886;12.874;2022-09-12T14:14:05;101201.09;;;29.77;36.88
46954;BME280;32707;43.886;12.874;2022-09-12T14:16:42;101203.22;;;29.73;37.14
46954;BME280;32707;43.886;12.874;2022-09-12T14:19:09;101193.38;;;29.70;37.09
46954;BME280;32707;43.886;12.874;2022-09-12T14:21:36;101206.16;;;29.69;37.31
46954;BME280;32707;43.886;12.874;2022-09-12T14:24:04;101198.78;;;29.68;37.61
46954;BME280;32707;43.886;12.874;2022-09-12T14:26:38;101197.84;;;29.55;37.95
46954;BME280;32707;43.886;12.874;2022-09-12T14:29:06;101196.34;;;29.46;38.26
46954;BME280;32707;43.886;12.874;2022-09-12T14:31:37;101186.59;;;29.60;38.21
46954;BME280;32707;43.886;12.874;2022-09-12T14:34:14;101183.16;;;29.65;38.49
46954;BME280;32707;43.886;12.874;2022-09-12T14:36:47;101189.53;;;29.77;38.32
46954;BME280;32707;43.886;12.874;2022-09-12T14:39:17;101189.41;;;29.84;38.00
46954;BME280;32707;43.886;12.874;2022-09-12T14:41:46;101202.41;;;29.92;37.90
46954;BME280;32707;43.886;12.874;2022-09-12T14:44:22;101189.25;;;29.91;38.24
46954;BME280;32707;43.886;12.874;2022-09-12T14:46:49;101196.06;;;29.81;38.29
46954;BME280;32707;43.886;12.874;2022-09-12T14:54:53;101188.78;;;29.73;38.83
46954;BME280;32707;43.886;12.874;2022-09-12T14:57:38;101194.16;;;29.74;39.16
46954;BME280;32707;43.886;12.874;2022-09-12T15:00:24;101183.41;;;29.75;39.11
46954;BME280;32707;43.886;12.874;2022-09-12T15:02:51;101192.22;;;29.68;39.18
46954;BME280;32707;43.886;12.874;2022-09-12T15:05:20;101190.56;;;29.66;39.43
46954;BME280;32707;43.886;12.874;2022-09-12T15:07:54;101188.81;;;29.53;39.67
46954;BME280;32707;43.886;12.874;2022-09-12T15:10:35;101187.75;;;29.43;39.67
46954;BME280;32707;43.886;12.874;2022-09-12T15:15:29;101191.31;;;29.31;39.83
46954;BME280;32707;43.886;12.874;2022-09-12T15:17:55;101196.59;;;29.12;40.29
46954;BME280;32707;43.886;12.874;2022-09-12T15:20:20;101195.31;;;28.93;40.60
46954;BME280;32707;43.886;12.874;2022-09-12T15:22:47;101198.81;;;28.81;40.65
46954;BME280;32707;43.886;12.874;2022-09-12T15:25:12;101195.72;;;28.68;40.89
46954;BME280;32707;43.886;12.874;2022-09-12T15:27:38;101190.19;;;28.57;41.02
46954;BME280;32707;43.886;12.874;2022-09-12T15:30:06;101182.19;;;28.41;41.70
46954;BME280;32707;43.886;12.874;2022-09-12T15:32:32;101176.09;;;28.36;41.83
46954;BME280;32707;43.886;12.874;2022-09-12T15:34:58;101183.56;;;28.33;41.83
46954;BME280;32707;43.886;12.874;2022-09-12T15:37:24;101186.16;;;28.24;42.00
46954;BME280;32707;43.886;12.874;2022-09-12T15:39:50;101183.06;;;28.11;42.33
46954;BME280;32707;43.886;12.874;2022-09-12T15:42:17;101178.25;;;28.04;42.38